Williamsburg, Iowa
Current Conditions -  °F | °C
As of 6:52 AM on Thursday 30 Oct 2014 (Local Time) from KCID Reporting Station
Overcast Overcast  
Wind Chill: 31°   Ceiling: 11000
Heat Index: 36°   Visibility: 10mi
Dew Point: 34°   Wind: 6mph
Humidity: 93%   Direction: 160°SSE
Pressure: 30.08"   Gusts: NA
Location:  41.66°N, 92.01°W
Report Text: KCID 301152Z 16005KT 10SM OVC110 02/01 A3008 RMK AO2 SLP192 T00220011 10022 21006 58004
Loading
Personal Weather Stations






























Interactive Weather Map New forecast layout! Learn more

10-Day Weather Forecast

Advertisements
Track Severe Weather on mobile